Impacts TAF Board
For situational awareness. Not to be used for flight planning purposes.
IDs:

KMIA - Miami Intl, FL, US

Issued at 1720 UTC 22 Sep 2018
Updated at 1903 UTC 22 Sep 2018
Potential Impact None Slight Moderate High
Time<<23/20Z 23/21Z 23/22Z 23/23Z 24/00Z 24/01Z 24/02Z 24/03Z 24/04Z 24/05Z 24/06Z 24/07Z 24/08Z
Type PRVL PRVL PRVL PRVL
VIS >6 >6 >6 >6
CIG -- -- -- --
Cover SCT SCT SCT SCT
FltCat VFR VFR VFR VFR
WX VCSH VCSH VCSH VCSH
WDir 80 80 80 80
WSpd 5 5 5 5
WGst -- -- -- --
Raw TAF
KMIA 221720Z 2218/2324 08009KT P6SM VCSH FEW035 SCT050 BKN100
  FM222300 00000KT P6SM FEW025 SCT050
  FM231400 08005KT P6SM VCSH FEW025 SCT050


METAR Board
Radar Display
Forecast Discussion
For situational awareness. Not to be used for flight planning purposes.